createdAt,value
2023-05-13T00:00:51.648Z,101374.97
2023-05-13T00:05:53.084Z,101373.03
2023-05-13T00:10:54.506Z,101372.09
2023-05-13T00:15:55.898Z,101358.41
2023-05-13T00:20:57.288Z,101369.56
2023-05-13T00:25:59.329Z,101361.13
2023-05-13T00:31:00.664Z,101359.66
2023-05-13T00:36:02.234Z,101361.69
2023-05-13T00:41:03.958Z,101359.06
2023-05-13T00:46:06.094Z,101366.03
2023-05-13T00:51:07.767Z,101366.22
2023-05-13T00:56:09.161Z,101367.41
2023-05-13T01:01:19.735Z,101366.97
2023-05-13T01:06:32.649Z,101358.75
2023-05-13T01:11:39.974Z,101366.69
2023-05-13T01:16:53.309Z,101363.53
2023-05-13T01:21:55.570Z,101355.06
2023-05-13T01:26:58.101Z,101360.47
2023-05-13T01:32:00.633Z,101364.94
2023-05-13T01:37:03.224Z,101355.38
2023-05-13T01:42:04.860Z,101359.69
2023-05-13T01:47:06.503Z,101372.06
2023-05-13T01:52:07.976Z,101367.72
2023-05-13T01:57:09.468Z,101366.88
2023-05-13T02:02:10.991Z,101364.28
2023-05-13T02:07:12.398Z,101369.97
2023-05-13T02:12:13.792Z,101364.06
2023-05-13T02:17:15.226Z,101368.59
2023-05-13T02:22:17.559Z,101374.28
2023-05-13T02:27:20.634Z,101381.44
2023-05-13T02:32:22.307Z,101370.13
2023-05-13T02:37:24.645Z,101368.22
2023-05-13T02:42:34.107Z,101365.72
2023-05-13T02:47:36.170Z,101369.31
2023-05-13T02:52:40.047Z,101367.28
2023-05-13T02:57:42.743Z,101360.38
2023-05-13T03:02:44.263Z,101367.19
2023-05-13T03:07:45.993Z,101362.22
2023-05-13T03:12:47.396Z,101364.97
2023-05-13T03:17:48.827Z,101366.09
2023-05-13T03:22:50.413Z,101367.66
2023-05-13T03:27:51.868Z,101363.91
2023-05-13T03:32:56.404Z,101367.69
2023-05-13T03:37:57.970Z,101365.72
2023-05-13T03:43:00.282Z,101359.56
2023-05-13T03:48:03.630Z,101365.06
2023-05-13T03:53:05.286Z,101368.88
2023-05-13T03:58:12.747Z,101365.00
2023-05-13T04:03:16.089Z,101374.94
2023-05-13T04:08:17.785Z,101375.41
2023-05-13T04:13:19.230Z,101374.56
2023-05-13T04:18:21.107Z,101380.75
2023-05-13T04:23:22.538Z,101383.13
2023-05-13T04:28:24.019Z,101383.50
2023-05-13T04:33:27.202Z,101390.06
2023-05-13T04:38:28.594Z,101398.22
2023-05-13T04:43:29.965Z,101392.09
2023-05-13T04:48:33.219Z,101396.19
2023-05-13T04:53:35.305Z,101392.28
2023-05-13T04:58:39.640Z,101395.44
2023-05-13T05:03:42.587Z,101403.72
2023-05-13T05:08:44.444Z,101406.72
2023-05-13T05:13:45.845Z,101407.19
2023-05-13T05:18:51.043Z,101411.09
2023-05-13T05:23:52.668Z,101412.66
2023-05-13T05:28:54.636Z,101414.91
2023-05-13T05:33:56.368Z,101411.31
2023-05-13T05:38:57.814Z,101414.97
2023-05-13T05:44:05.768Z,101413.38
2023-05-13T05:49:08.226Z,101428.09
2023-05-13T05:54:10.850Z,101421.97
2023-05-13T05:59:13.197Z,101422.38
2023-05-13T06:04:14.859Z,101427.03
2023-05-13T06:09:16.903Z,101427.97
2023-05-13T06:14:18.340Z,101430.09
2023-05-13T06:19:19.703Z,101425.47
2023-05-13T06:24:21.123Z,101425.38
2023-05-13T06:29:22.506Z,101421.91
2023-05-13T06:34:23.853Z,101426.38
2023-05-13T06:39:25.352Z,101428.59
2023-05-13T06:44:26.726Z,101432.53
2023-05-13T06:49:29.625Z,101455.97
2023-05-13T06:54:32.029Z,101453.16
2023-05-13T06:59:33.490Z,101459.16
2023-05-13T07:04:35.019Z,101458.56
2023-05-13T07:09:36.336Z,101457.16
2023-05-13T07:14:37.845Z,101462.19
2023-05-13T07:19:39.264Z,101452.53
2023-05-13T07:24:41.727Z,101452.59
2023-05-13T07:29:43.093Z,101458.34
2023-05-13T07:34:44.465Z,101461.81
2023-05-13T07:39:45.818Z,101456.84
2023-05-13T07:44:47.224Z,101454.31
2023-05-13T07:49:49.185Z,101461.50
2023-05-13T07:54:50.611Z,101458.94
2023-05-13T07:59:53.539Z,101465.38
2023-05-13T08:04:55.006Z,101461.66
2023-05-13T08:09:56.514Z,101454.59
2023-05-13T08:14:57.968Z,101453.50
2023-05-13T08:20:00.570Z,101457.63
2023-05-13T08:25:03.266Z,101450.34
2023-05-13T08:30:05.352Z,101443.47
2023-05-13T08:35:06.955Z,101447.47
2023-05-13T08:40:09.960Z,101449.31
2023-05-13T08:45:12.182Z,101462.34
2023-05-13T08:50:14.033Z,101454.25
2023-05-13T08:55:15.555Z,101446.72
2023-05-13T09:00:18.485Z,101445.16
2023-05-13T09:05:22.124Z,101437.84
2023-05-13T09:10:23.855Z,101438.63
2023-05-13T09:15:26.520Z,101442.09
2023-05-13T09:20:28.640Z,101438.69
2023-05-13T09:25:30.570Z,101447.91
2023-05-13T09:30:36.169Z,101442.63
2023-05-13T09:35:38.494Z,101431.63
2023-05-13T09:40:40.201Z,101429.38
2023-05-13T09:45:41.935Z,101437.00
2023-05-13T09:50:50.497Z,101424.81
2023-05-13T09:55:53.122Z,101427.88
2023-05-13T10:00:54.811Z,101414.34
2023-05-13T10:05:56.740Z,101413.78
2023-05-13T10:10:58.773Z,101415.72
2023-05-13T10:16:00.357Z,101411.22
2023-05-13T10:21:01.950Z,101406.19
2023-05-13T10:26:03.782Z,101402.63
2023-05-13T10:31:05.213Z,101388.16
2023-05-13T10:36:13.036Z,101386.63
2023-05-13T10:41:33.414Z,101390.84
2023-05-13T10:46:35.361Z,101382.38
2023-05-13T10:51:36.758Z,101371.94
2023-05-13T10:56:38.128Z,101373.97
2023-05-13T11:01:47.086Z,101361.22
2023-05-13T11:06:49.691Z,101362.94
2023-05-13T11:11:54.340Z,101357.47
2023-05-13T11:17:04.624Z,101364.75
2023-05-13T11:22:05.978Z,101352.13
2023-05-13T11:27:17.384Z,101348.03
2023-05-13T11:32:37.878Z,101342.75
2023-05-13T11:37:43.192Z,101334.97
2023-05-13T11:42:45.202Z,101338.66
2023-05-13T11:47:46.779Z,101331.97
2023-05-13T11:52:52.696Z,101330.63
2023-05-13T11:57:54.188Z,101329.53
2023-05-13T12:02:55.971Z,101329.38
2023-05-13T12:07:58.035Z,101332.19
2023-05-13T12:12:59.564Z,101336.69
2023-05-13T12:18:01.104Z,101330.19
2023-05-13T12:23:02.799Z,101332.03
2023-05-13T12:28:10.179Z,101338.53
2023-05-13T12:33:18.717Z,101331.69
2023-05-13T12:38:21.659Z,101336.28
2023-05-13T12:43:23.095Z,101331.47
2023-05-13T12:48:25.433Z,101337.81
2023-05-13T12:53:27.250Z,101338.94
2023-05-13T12:58:28.673Z,101336.97
2023-05-13T13:03:30.223Z,101341.53
2023-05-13T13:08:31.755Z,101348.97
2023-05-13T13:13:33.471Z,101354.19
2023-05-13T13:18:35.326Z,101352.06
2023-05-13T13:23:36.702Z,101359.94
2023-05-13T13:28:38.030Z,101361.31
2023-05-13T13:33:39.388Z,101354.09
2023-05-13T13:38:40.819Z,101351.69
2023-05-13T13:43:42.156Z,101351.09
2023-05-13T13:48:43.572Z,101344.25
2023-05-13T13:53:44.927Z,101344.75
2023-05-13T13:58:46.275Z,101344.03
2023-05-13T14:03:49.904Z,101353.84
2023-05-13T14:08:51.813Z,101347.97
2023-05-13T14:13:53.133Z,101332.06
2023-05-13T14:18:54.550Z,101334.38
2023-05-13T14:23:55.974Z,101311.03
2023-05-13T14:28:57.454Z,101313.53
2023-05-13T14:33:58.822Z,101320.63
2023-05-13T14:39:00.233Z,101332.72
2023-05-13T14:44:01.747Z,101329.34
2023-05-13T14:49:03.161Z,101322.22
2023-05-13T14:54:04.677Z,101325.38
2023-05-13T14:59:06.031Z,101313.66
2023-05-13T15:04:07.385Z,101307.97
2023-05-13T15:09:08.804Z,101309.50
2023-05-13T15:14:10.221Z,101326.22
2023-05-13T15:19:11.620Z,101311.09
2023-05-13T15:24:13.014Z,101308.72
2023-05-13T15:29:14.359Z,101311.63
2023-05-13T15:34:15.838Z,101297.34
2023-05-13T15:39:17.193Z,101303.91
2023-05-13T15:44:18.978Z,101293.22
2023-05-13T15:49:20.332Z,101289.44
2023-05-13T15:54:21.696Z,101290.28
2023-05-13T15:59:23.064Z,101304.75
2023-05-13T16:04:24.433Z,101344.63
2023-05-13T16:09:25.953Z,101374.94
2023-05-13T16:14:27.476Z,101385.63
2023-05-13T16:19:28.844Z,101378.34
2023-05-13T16:24:30.208Z,101396.03
2023-05-13T16:29:31.561Z,101418.59
2023-05-13T16:34:32.898Z,101427.47
2023-05-13T16:39:34.299Z,101417.72
2023-05-13T16:44:35.728Z,101389.00
2023-05-13T16:49:37.117Z,101375.72
2023-05-13T16:54:38.578Z,101368.31
2023-05-13T16:59:39.970Z,101355.72
2023-05-13T17:04:41.344Z,101353.19
2023-05-13T17:09:42.709Z,101344.88
2023-05-13T17:14:44.115Z,101350.28
2023-05-13T17:19:45.592Z,101344.28
2023-05-13T17:24:46.900Z,101342.47
2023-05-13T17:29:48.318Z,101335.50
2023-05-13T17:34:49.698Z,101333.31
2023-05-13T17:39:51.239Z,101329.78
2023-05-13T17:44:52.702Z,101317.28
2023-05-13T17:49:54.165Z,101316.97
2023-05-13T17:54:55.661Z,101311.91
2023-05-13T17:59:57.751Z,101323.34
2023-05-13T18:04:59.454Z,101331.44
2023-05-13T18:10:00.934Z,101317.19
2023-05-13T18:15:02.391Z,101314.81
2023-05-13T18:20:03.915Z,101313.19
2023-05-13T18:25:06.172Z,101315.59
2023-05-13T18:30:07.881Z,101313.22
2023-05-13T18:35:09.562Z,101316.19
2023-05-13T18:40:11.168Z,101322.94
2023-05-13T18:45:12.552Z,101318.66
2023-05-13T18:50:13.938Z,101328.44
2023-05-13T18:55:15.409Z,101328.25
2023-05-13T19:00:17.672Z,101321.84
2023-05-13T19:05:20.533Z,101337.59
2023-05-13T19:10:22.267Z,101347.16
2023-05-13T19:15:25.152Z,101346.53
2023-05-13T19:20:26.939Z,101341.34
2023-05-13T19:25:28.371Z,101351.72
2023-05-13T19:30:29.782Z,101338.94
2023-05-13T19:35:34.413Z,101344.31
2023-05-13T19:40:35.942Z,101345.09
2023-05-13T19:45:37.375Z,101347.66
2023-05-13T19:50:39.412Z,101355.63
2023-05-13T19:55:41.182Z,101351.19
2023-05-13T20:00:43.912Z,101363.56
2023-05-13T20:05:46.384Z,101358.03
2023-05-13T20:10:47.812Z,101352.56
2023-05-13T20:15:49.256Z,101355.44
2023-05-13T20:20:51.502Z,101358.09
2023-05-13T20:26:02.097Z,101349.03
2023-05-13T20:31:03.694Z,101357.47
2023-05-13T20:36:06.479Z,101355.78
2023-05-13T20:41:07.906Z,101363.00
2023-05-13T20:46:12.673Z,101354.53
2023-05-13T20:51:14.068Z,101355.66
2023-05-13T20:56:15.448Z,101354.03
2023-05-13T21:01:16.889Z,101357.84
2023-05-13T21:06:18.280Z,101357.81
2023-05-13T21:11:19.657Z,101353.03
2023-05-13T21:16:21.100Z,101364.09
2023-05-13T21:21:22.550Z,101364.72
2023-05-13T21:26:24.298Z,101370.56
2023-05-13T21:31:25.747Z,101369.34
2023-05-13T21:36:27.110Z,101368.44
2023-05-13T21:41:28.444Z,101374.28
2023-05-13T21:46:29.805Z,101359.25
2023-05-13T21:51:32.569Z,101370.31
2023-05-13T21:56:33.934Z,101364.06
2023-05-13T22:01:35.319Z,101361.19
2023-05-13T22:06:36.676Z,101355.63
2023-05-13T22:11:38.015Z,101361.47
2023-05-13T22:16:39.481Z,101360.41
2023-05-13T22:21:40.950Z,101362.97
2023-05-13T22:26:43.552Z,101357.13
2023-05-13T22:31:44.956Z,101348.63
2023-05-13T22:36:46.345Z,101355.97
2023-05-13T22:41:47.839Z,101348.03
2023-05-13T22:46:49.369Z,101348.22
2023-05-13T22:51:51.118Z,101344.63
2023-05-13T22:56:52.567Z,101340.22
2023-05-13T23:01:53.936Z,101334.53
2023-05-13T23:06:55.338Z,101328.94
2023-05-13T23:11:57.316Z,101324.75
2023-05-13T23:16:58.735Z,101332.22
2023-05-13T23:22:00.126Z,101327.53
2023-05-13T23:27:01.465Z,101324.22
2023-05-13T23:32:05.174Z,101323.25
2023-05-13T23:37:09.758Z,101314.22
2023-05-13T23:42:11.344Z,101315.53
2023-05-13T23:47:13.436Z,101310.41
2023-05-13T23:52:14.790Z,101306.94
2023-05-13T23:57:16.169Z,101310.16
